Time;durP1;ratioP1;P1;durP2;ratioP2;P2;SDS_P1;SDS_P2;PMS_P1;PMS_P2;Temp;Humidity;BMP_temperature;BMP_pressure;BME280_temperature;BME280_humidity;BME280_pressure;Samples;Min_cycle;Max_cycle;Signal;HPM_P1;HPM_P2
2022/04/04 00:00:50;;;;;;;10.95;4.93;;;;;;;-2.75;90.31;98935.72;5059875;28;20366;-68
2022/04/04 00:03:15;;;;;;;10.50;4.82;;;;;;;-2.69;90.45;98931.66;5044153;28;20045;-68
2022/04/04 00:05:41;;;;;;;10.93;5.65;;;;;;;-2.66;89.62;98930.91;5046494;28;20080;-68
2022/04/04 00:08:07;;;;;;;7.88;4.43;;;;;;;-2.72;89.80;98933.25;5056275;28;20009;-68
2022/04/04 00:10:32;;;;;;;10.55;4.95;;;;;;;-2.71;89.46;98929.84;5062056;28;20028;-68
2022/04/04 00:12:58;;;;;;;17.73;5.10;;;;;;;-2.86;89.22;98927.59;5043796;28;20132;-68
2022/04/04 00:15:24;;;;;;;15.65;5.70;;;;;;;-2.90;89.07;98932.56;5043764;28;20017;-68
2022/04/04 00:17:50;;;;;;;12.60;4.45;;;;;;;-2.90;90.06;98932.56;5043668;28;20264;-68
2022/04/04 00:20:15;;;;;;;11.25;5.72;;;;;;;-2.93;89.85;98935.03;5044831;28;20092;-68
2022/04/04 00:22:42;;;;;;;12.23;5.38;;;;;;;-2.93;89.83;98935.03;5043647;28;20025;-68
2022/04/04 00:25:08;;;;;;;10.02;3.70;;;;;;;-2.89;89.23;98932.63;5043675;28;20233;-68
2022/04/04 00:27:34;;;;;;;11.23;5.13;;;;;;;-3.09;88.99;98937.84;5043902;28;20186;-68
2022/04/04 00:30:00;;;;;;;6.50;4.53;;;;;;;-3.20;90.31;98936.56;5044695;28;20060;-68
2022/04/04 00:32:26;;;;;;;9.40;5.10;;;;;;;-3.20;91.31;98939.13;5043389;28;20048;-68
2022/04/04 00:34:51;;;;;;;11.15;4.90;;;;;;;-3.09;91.66;98937.84;5043587;28;20021;-68
2022/04/04 00:37:17;;;;;;;10.45;5.60;;;;;;;-3.01;90.76;98931.31;5043496;28;20044;-68
2022/04/04 00:39:42;;;;;;;13.52;5.25;;;;;;;-3.14;89.65;98923.91;5050797;28;20028;-68
2022/04/04 00:42:08;;;;;;;14.05;6.40;;;;;;;-3.25;90.27;98914.91;5062623;28;20260;-68
2022/04/04 00:44:33;;;;;;;10.48;5.65;;;;;;;-3.41;90.64;98907.41;5062864;28;20025;-68
2022/04/04 00:46:59;;;;;;;16.02;6.95;;;;;;;-3.51;91.34;98905.31;5062594;28;20308;-68
2022/04/04 00:49:24;;;;;;;11.02;5.65;;;;;;;-3.39;91.62;98906.66;5058383;28;20045;-68
2022/04/04 00:51:50;;;;;;;18.73;7.05;;;;;;;-3.51;91.03;98903.59;5043470;28;20231;-68
2022/04/04 00:54:15;;;;;;;14.13;6.13;;;;;;;-3.51;91.19;98906.16;5043651;28;20350;-68
2022/04/04 00:56:41;;;;;;;17.58;7.82;;;;;;;-3.38;91.04;98897.25;5047045;28;20025;-68
2022/04/04 00:59:10;;;;;;;15.93;7.78;;;;;;;-3.40;91.04;98904.00;5048257;28;20024;-68
2022/04/04 01:01:35;;;;;;;17.00;7.13;;;;;;;-3.39;90.73;98903.22;5047228;28;20355;-68
2022/04/04 01:04:01;;;;;;;14.63;5.68;;;;;;;-3.39;90.75;98900.66;5046999;28;20021;-68
2022/04/04 01:06:27;;;;;;;11.73;6.78;;;;;;;-3.42;90.68;98900.53;5047000;28;20097;-68
2022/04/04 01:08:53;;;;;;;13.93;5.95;;;;;;;-3.50;90.41;98901.91;5052281;28;20021;-68
2022/04/04 01:11:19;;;;;;;14.27;7.07;;;;;;;-3.50;91.46;98896.75;5065988;28;20013;-68
2022/04/04 01:13:49;;;;;;;16.00;6.20;;;;;;;-3.46;90.77;98894.38;5063849;28;20313;-68
2022/04/04 01:16:15;;;;;;;14.20;5.60;;;;;;;-3.44;90.88;98891.84;5066399;28;20024;-68
2022/04/04 01:18:40;;;;;;;13.65;5.30;;;;;;;-3.38;90.73;98887.84;5066597;28;20040;-68
2022/04/04 01:21:06;;;;;;;12.68;5.93;;;;;;;-3.43;90.91;98888.47;5066695;28;20216;-68
2022/04/04 01:23:42;;;;;;;13.20;7.00;;;;;;;-3.33;90.21;98890.56;5066569;28;20074;-68
2022/04/04 01:26:10;;;;;;;12.45;5.93;;;;;;;-3.48;89.56;98880.56;5066510;28;20032;-68
2022/04/04 01:28:36;;;;;;;11.60;5.78;;;;;;;-3.54;90.08;98879.47;5066488;28;20020;-68
2022/04/04 01:31:02;;;;;;;13.73;5.15;;;;;;;-3.59;90.48;98875.81;5050406;28;20022;-68
2022/04/04 01:33:28;;;;;;;8.15;5.40;;;;;;;-3.58;90.59;98878.44;5046323;28;20113;-68
2022/04/04 01:35:57;;;;;;;11.20;5.22;;;;;;;-3.66;90.68;98872.16;5046447;28;20071;-68
2022/04/04 01:38:22;;;;;;;10.05;4.90;;;;;;;-3.67;91.63;98878.06;5044640;28;20021;-68
2022/04/04 01:40:49;;;;;;;7.45;4.10;;;;;;;-3.68;91.28;98867.72;5045709;28;20030;-68
2022/04/04 01:43:14;;;;;;;11.68;5.75;;;;;;;-3.66;91.74;98868.69;5045343;28;20040;-68
2022/04/04 01:48:24;;;;;;;7.70;4.75;;;;;;;-3.57;90.83;98869.03;5045251;28;20048;-68
2022/04/04 01:50:50;;;;;;;10.57;5.10;;;;;;;-3.68;91.06;98860.03;5045421;28;20029;-68
2022/04/04 01:53:29;;;;;;;24.33;6.28;;;;;;;-3.74;90.58;98860.66;5046286;28;20209;-68
2022/04/04 01:55:57;;;;;;;10.25;5.35;;;;;;;-3.72;90.65;98858.16;5047365;28;20017;-68
2022/04/04 01:58:23;;;;;;;10.50;5.20;;;;;;;-3.77;91.29;98859.69;5065306;28;20032;-68
2022/04/04 02:00:49;;;;;;;21.98;7.07;;;;;;;-3.76;92.25;98862.31;5058924;28;20025;-68
2022/04/04 02:03:15;;;;;;;9.85;5.20;;;;;;;-3.75;91.86;98863.16;5046178;28;20013;-68
2022/04/04 02:05:40;;;;;;;13.00;6.15;;;;;;;-3.72;91.41;98863.28;5049885;28;20084;-68
2022/04/04 02:08:06;;;;;;;10.95;6.28;;;;;;;-3.70;92.01;98866.81;5064777;28;20024;-68
2022/04/04 02:10:32;;;;;;;7.15;4.65;;;;;;;-3.63;91.90;98861.09;5062822;28;20021;-68
2022/04/04 02:12:58;;;;;;;8.55;4.30;;;;;;;-3.61;90.86;98862.88;5059083;28;20124;-68
2022/04/04 02:15:23;;;;;;;12.35;6.78;;;;;;;-3.80;91.18;98859.56;5063727;28;20224;-68
2022/04/04 02:17:50;;;;;;;19.38;6.78;;;;;;;-3.79;91.44;98866.44;5064780;28;20016;-68
2022/04/04 02:20:15;;;;;;;11.32;5.10;;;;;;;-3.80;91.19;98869.84;5064961;28;20021;-68
2022/04/04 02:22:41;;;;;;;8.60;4.93;;;;;;;-3.87;91.27;98863.56;5055937;28;20025;-68
2022/04/04 02:25:07;;;;;;;10.02;5.28;;;;;;;-3.81;91.26;98858.66;5049419;28;20020;-68
2022/04/04 02:27:32;;;;;;;20.88;4.72;;;;;;;-3.82;91.45;98856.03;5064873;28;20024;-68
2022/04/04 02:29:58;;;;;;;30.73;6.72;;;;;;;-3.80;90.68;98860.41;5065277;28;20378;-68
2022/04/04 02:32:23;;;;;;;15.88;5.85;;;;;;;-3.92;90.36;98846.22;5065123;28;20048;-68
2022/04/04 02:34:50;;;;;;;9.05;5.07;;;;;;;-3.92;90.59;98848.78;5065268;28;20083;-68
2022/04/04 02:37:16;;;;;;;9.10;5.18;;;;;;;-4.05;91.22;98843.97;5065147;28;20224;-68
2022/04/04 02:39:42;;;;;;;7.07;4.38;;;;;;;-3.94;92.21;98850.41;5063620;28;20021;-68
2022/04/04 02:42:08;;;;;;;9.90;4.82;;;;;;;-3.90;92.25;98852.31;5047795;28;20036;-68
2022/04/04 02:44:36;;;;;;;13.02;4.88;;;;;;;-3.99;92.38;98851.94;5045168;28;20033;-68
2022/04/04 02:47:02;;;;;;;8.75;3.97;;;;;;;-3.95;92.19;98858.94;5045103;28;20024;-68
2022/04/04 02:49:30;;;;;;;6.75;3.58;;;;;;;-3.94;92.14;98850.41;5056241;28;20013;-68
2022/04/04 02:51:57;;;;;;;9.68;4.13;;;;;;;-3.98;91.57;98854.56;5064394;28;20020;-68
2022/04/04 02:54:23;;;;;;;10.85;5.45;;;;;;;-3.95;91.60;98851.22;5064063;28;20063;-68
2022/04/04 02:56:48;;;;;;;13.35;6.18;;;;;;;-3.96;91.71;98849.47;5064213;28;20088;-68
2022/04/04 02:59:14;;;;;;;10.32;6.00;;;;;;;-3.94;92.13;98852.97;5062894;28;20432;-68
2022/04/04 03:01:41;;;;;;;17.38;6.40;;;;;;;-3.96;91.79;98847.75;5045138;28;20024;-68
2022/04/04 03:04:06;;;;;;;8.10;3.85;;;;;;;-3.99;91.54;98845.06;5044717;28;20025;-68
2022/04/04 03:06:32;;;;;;;11.02;5.70;;;;;;;-3.98;91.83;98843.38;5044732;28;20163;-68
2022/04/04 03:08:57;;;;;;;15.48;5.45;;;;;;;-4.03;90.99;98842.31;5056345;28;20020;-68
2022/04/04 03:11:23;;;;;;;8.95;5.85;;;;;;;-4.03;91.13;98839.75;5049097;28;20013;-68
2022/04/04 03:13:48;;;;;;;8.57;4.43;;;;;;;-4.09;92.54;98836.94;5044894;28;20194;-68
2022/04/04 03:16:14;;;;;;;8.35;5.82;;;;;;;-3.99;92.64;98844.22;5044528;28;20023;-68
2022/04/04 03:18:40;;;;;;;7.47;4.50;;;;;;;-4.04;91.87;98838.00;5053598;28;20021;-68
2022/04/04 03:21:06;;;;;;;7.07;3.42;;;;;;;-4.03;91.75;98834.59;5063877;28;20043;-68
2022/04/04 03:23:33;;;;;;;9.15;5.82;;;;;;;-4.10;92.57;98833.50;5063822;28;20093;-68
2022/04/04 03:25:59;;;;;;;6.63;4.28;;;;;;;-4.02;92.36;98834.66;5063514;28;20025;-68
2022/04/04 03:28:25;;;;;;;8.20;3.83;;;;;;;-3.97;92.04;98829.72;5056849;28;20063;-68
2022/04/04 03:30:51;;;;;;;10.38;5.28;;;;;;;-4.04;92.31;98832.84;5044316;28;20104;-68
2022/04/04 03:33:17;;;;;;;15.25;5.85;;;;;;;-4.01;93.09;98833.88;5044216;28;20045;-68
2022/04/04 03:35:42;;;;;;;13.80;6.30;;;;;;;-4.03;92.55;98834.59;5044199;28;20028;-68
2022/04/04 03:38:10;;;;;;;12.68;6.28;;;;;;;-4.08;92.87;98820.72;5044059;28;20025;-68
2022/04/04 03:40:37;;;;;;;16.63;7.15;;;;;;;-4.02;92.40;98819.25;5044143;28;20025;-68
2022/04/04 03:43:04;;;;;;;6.85;5.28;;;;;;;-4.07;91.96;98827.59;5044379;28;20081;-68
2022/04/04 03:45:30;;;;;;;13.07;7.68;;;;;;;-4.06;93.93;98824.19;5044079;28;20025;-68
2022/04/04 03:47:56;;;;;;;18.40;7.80;;;;;;;-3.99;94.30;98826.22;5044033;28;20021;-68
2022/04/04 03:50:22;;;;;;;9.88;5.30;;;;;;;-3.90;93.96;98818.88;5044035;28;20025;-68
2022/04/04 03:52:52;;;;;;;17.02;5.90;;;;;;;-4.06;93.23;98817.38;5043973;28;20067;-68
2022/04/04 03:55:18;;;;;;;11.20;5.38;;;;;;;-4.01;93.37;98817.56;5043978;28;20017;-68
2022/04/04 03:57:45;;;;;;;6.85;4.07;;;;;;;-3.97;92.44;98811.72;5043835;28;20024;-68
2022/04/04 04:00:12;;;;;;;23.10;6.35;;;;;;;-4.04;92.88;98812.28;5044159;28;20021;-68
2022/04/04 04:02:37;;;;;;;8.15;4.90;;;;;;;-4.01;94.23;98813.31;5054728;28;20335;-68
2022/04/04 04:05:04;;;;;;;9.98;4.75;;;;;;;-4.04;93.72;98808.03;5063594;28;20025;-68
2022/04/04 04:07:30;;;;;;;7.00;4.50;;;;;;;-4.00;94.17;98803.88;5048938;28;20260;-68
2022/04/04 04:09:55;;;;;;;8.00;4.53;;;;;;;-3.95;94.21;98803.28;5048650;28;20021;-68
2022/04/04 04:12:21;;;;;;;28.15;7.43;;;;;;;-3.96;93.71;98803.22;5063157;28;20028;-68
2022/04/04 04:14:47;;;;;;;18.90;7.40;;;;;;;-4.01;92.58;98797.88;5063703;28;20044;-68
2022/04/04 04:17:13;;;;;;;10.88;4.50;;;;;;;-3.95;93.12;98793.00;5063601;28;20088;-68
2022/04/04 04:22:23;;;;;;;13.20;5.82;;;;;;;-3.91;92.91;98793.97;5063687;28;20055;-68
2022/04/04 04:24:49;;;;;;;9.77;4.25;;;;;;;-3.98;92.95;98789.41;5063608;28;20033;-68
2022/04/04 04:27:15;;;;;;;6.97;5.10;;;;;;;-3.99;92.68;98787.66;5063558;28;20086;-68
2022/04/04 04:29:41;;;;;;;10.77;5.45;;;;;;;-3.97;93.58;98786.00;5064467;28;20344;-68
2022/04/04 04:32:08;;;;;;;13.18;4.68;;;;;;;-3.91;93.61;98789.72;5067427;28;20110;-68
2022/04/04 04:34:34;;;;;;;10.75;4.35;;;;;;;-3.81;94.40;98780.66;5067446;28;20021;-68
2022/04/04 04:37:01;;;;;;;16.15;4.63;;;;;;;-3.75;93.66;98786.03;5067693;28;20048;-68
2022/04/04 04:39:26;;;;;;;9.88;4.63;;;;;;;-3.91;91.70;98792.28;5067491;28;20029;-68
2022/04/04 04:41:52;;;;;;;6.68;4.72;;;;;;;-3.93;91.88;98785.34;5067568;28;20116;-68
2022/04/04 04:44:17;;;;;;;8.13;3.78;;;;;;;-3.92;93.56;98787.09;5067369;28;20024;-68
2022/04/04 04:46:43;;;;;;;13.75;5.38;;;;;;;-3.86;94.20;98788.19;5067327;28;20259;-68
2022/04/04 04:49:09;;;;;;;7.03;4.18;;;;;;;-3.70;95.02;98779.38;5067313;28;20201;-68
2022/04/04 04:51:35;;;;;;;20.95;6.22;;;;;;;-3.61;94.78;98777.16;5067480;28;20025;-68
2022/04/04 04:54:00;;;;;;;13.45;6.85;;;;;;;-3.65;93.02;98777.84;5067168;28;20032;-68
2022/04/04 04:56:27;;;;;;;9.38;4.75;;;;;;;-3.66;92.50;98776.09;5067382;28;20051;-68
2022/04/04 04:58:52;;;;;;;8.98;5.05;;;;;;;-3.57;93.59;98776.44;5067265;28;20320;-68
2022/04/04 05:01:18;;;;;;;8.45;4.68;;;;;;;-3.52;94.63;98772.34;5067054;28;20052;-68
2022/04/04 05:03:43;;;;;;;8.75;5.22;;;;;;;-3.37;95.14;98771.22;5066976;28;20028;-68
2022/04/04 05:06:09;;;;;;;10.63;5.35;;;;;;;-3.13;95.71;98771.25;5066939;28;20348;-68
2022/04/04 05:08:34;;;;;;;12.88;4.85;;;;;;;-3.04;95.24;98774.16;5066919;28;20044;-68
2022/04/04 05:11:00;;;;;;;7.68;5.45;;;;;;;-2.83;95.35;98777.44;5067043;28;20059;-68
2022/04/04 05:13:27;;;;;;;15.55;7.18;;;;;;;-2.74;94.63;98777.78;5066794;28;20028;-68
2022/04/04 05:15:54;;;;;;;8.65;4.75;;;;;;;-2.59;94.09;98773.16;5066719;28;20028;-68
2022/04/04 05:18:20;;;;;;;12.93;5.95;;;;;;;-2.47;94.67;98773.53;5066948;28;20340;-68
2022/04/04 05:20:46;;;;;;;18.83;7.07;;;;;;;-2.45;94.18;98771.91;5066658;28;20076;-68
2022/04/04 05:23:12;;;;;;;13.07;7.70;;;;;;;-2.33;93.28;98772.31;5066635;28;20088;-68
2022/04/04 05:25:37;;;;;;;14.02;6.78;;;;;;;-2.22;92.08;98770.94;5066574;28;20187;-68
2022/04/04 05:28:03;;;;;;;25.95;12.18;;;;;;;-2.32;91.95;98771.47;5066572;28;20029;-68
2022/04/04 05:30:28;;;;;;;17.98;9.38;;;;;;;-2.25;92.02;98770.84;5066467;28;20066;-68
2022/04/04 05:32:54;;;;;;;30.50;8.25;;;;;;;-2.15;92.67;98782.34;5066271;28;20229;-68
2022/04/04 05:35:19;;;;;;;13.57;7.72;;;;;;;-2.04;93.17;98779.28;5066458;28;20028;-68
2022/04/04 05:37:46;;;;;;;20.45;8.30;;;;;;;-1.80;92.96;98774.91;5066524;28;20092;-68
2022/04/04 05:40:11;;;;;;;14.75;7.25;;;;;;;-1.75;92.37;98775.91;5066290;28;20190;-68
2022/04/04 05:42:37;;;;;;;11.32;6.00;;;;;;;-1.51;92.42;98779.25;5065096;28;20086;-68
2022/04/04 05:45:02;;;;;;;12.70;5.80;;;;;;;-1.31;92.22;98770.38;5066211;28;20021;-68
2022/04/04 05:47:28;;;;;;;20.88;7.80;;;;;;;-1.21;92.12;98777.53;5066136;28;20021;-68
2022/04/04 05:49:53;;;;;;;15.48;7.20;;;;;;;-1.06;91.26;98777.97;5066125;28;20062;-68
2022/04/04 05:52:23;;;;;;;18.27;6.70;;;;;;;-0.92;90.85;98776.63;5066064;28;20025;-68
2022/04/04 05:54:55;;;;;;;15.80;7.90;;;;;;;-0.87;91.25;98781.94;5066019;28;20099;-68
2022/04/04 05:57:29;;;;;;;19.75;8.02;;;;;;;-0.81;90.43;98770.06;5066252;28;20029;-68
2022/04/04 05:59:55;;;;;;;14.75;7.38;;;;;;;-0.69;90.61;98785.88;5066201;28;20024;-68
2022/04/04 06:02:22;;;;;;;14.23;7.25;;;;;;;-0.58;90.17;98784.47;5065958;28;20029;-68
2022/04/04 06:04:48;;;;;;;13.73;7.43;;;;;;;-0.52;89.97;98789.81;5066113;28;20040;-68
2022/04/04 06:07:13;;;;;;;14.70;8.02;;;;;;;-0.39;89.51;98786.69;5065771;28;20040;-68
2022/04/04 06:09:39;;;;;;;12.75;6.43;;;;;;;-0.35;89.14;98788.53;5065770;28;20044;-68
2022/04/04 06:12:05;;;;;;;19.48;7.22;;;;;;;-0.35;89.03;98791.09;5065676;28;20128;-68
2022/04/04 06:14:30;;;;;;;19.00;7.55;;;;;;;-0.23;88.72;98791.44;5065663;28;20039;-68
2022/04/04 06:16:56;;;;;;;16.05;7.50;;;;;;;-0.17;88.86;98786.41;5065567;28;20052;-68
2022/04/04 06:19:21;;;;;;;19.40;9.07;;;;;;;-0.15;88.74;98787.28;5065652;28;20045;-68
2022/04/04 06:21:47;;;;;;;15.82;7.97;;;;;;;-0.03;88.89;98787.59;5065807;28;20020;-68
2022/04/04 06:24:12;;;;;;;14.60;7.40;;;;;;;0.13;88.90;98787.97;5065757;28;20304;-68
2022/04/04 06:26:39;;;;;;;17.73;8.48;;;;;;;0.24;87.63;98782.22;5065444;28;20265;-68
2022/04/04 06:29:04;;;;;;;18.88;6.93;;;;;;;0.31;87.84;98772.91;5065662;28;20067;-68
2022/04/04 06:31:29;;;;;;;18.33;6.80;;;;;;;0.52;86.66;98783.72;5065211;28;20298;-68
2022/04/04 06:33:55;;;;;;;18.42;8.63;;;;;;;0.71;85.75;98785.84;5065321;28;20032;-68
2022/04/04 06:36:23;;;;;;;27.50;9.43;;;;;;;0.88;85.81;98789.69;5065301;28;20052;-68
2022/04/04 06:38:49;;;;;;;17.30;9.27;;;;;;;1.19;85.19;98781.69;5065116;28;20216;-68
2022/04/04 06:41:14;;;;;;;16.95;8.52;;;;;;;1.37;84.25;98788.13;5065153;28;20017;-68
2022/04/04 06:43:40;;;;;;;18.80;9.57;;;;;;;1.44;84.32;98784.78;5065140;28;20161;-68
2022/04/04 06:46:05;;;;;;;18.92;9.90;;;;;;;1.58;83.66;98787.63;5065087;28;20216;-68
2022/04/04 06:48:31;;;;;;;21.23;9.60;;;;;;;1.55;82.43;98783.25;5065026;28;20084;-68
2022/04/04 06:50:59;;;;;;;20.02;9.52;;;;;;;1.56;82.61;98778.94;5064957;28;20021;-68
2022/04/04 06:53:24;;;;;;;22.63;9.30;;;;;;;2.15;80.48;98779.09;5064915;28;20027;-68
2022/04/04 06:55:50;;;;;;;17.95;9.38;;;;;;;2.04;80.46;98764.19;5065177;28;20261;-68
2022/04/04 06:58:16;;;;;;;17.15;8.45;;;;;;;2.06;79.62;98771.16;5064743;28;20096;-68
2022/04/04 07:00:42;;;;;;;19.10;8.85;;;;;;;2.03;79.22;98765.06;5064747;28;20024;-68
2022/04/04 07:03:08;;;;;;;21.75;8.50;;;;;;;2.05;79.38;98771.13;5064726;28;20092;-68
2022/04/04 07:05:34;;;;;;;21.63;8.90;;;;;;;3.27;78.30;98775.44;5064608;28;20021;-68
2022/04/04 07:08:00;;;;;;;14.60;7.35;;;;;;;4.68;73.45;98775.84;5064667;28;20070;-68
2022/04/04 07:10:25;;;;;;;19.13;8.57;;;;;;;5.50;70.12;98767.47;5064555;28;20028;-68
2022/04/04 07:12:51;;;;;;;12.80;7.47;;;;;;;6.07;66.73;98772.81;5064589;28;20251;-68
2022/04/04 07:15:17;;;;;;;17.17;7.97;;;;;;;6.60;64.87;98763.22;5064497;28;20083;-68
2022/04/04 07:17:43;;;;;;;11.82;6.70;;;;;;;7.21;63.29;98771.78;5064378;28;20257;-68
2022/04/04 07:20:10;;;;;;;10.63;6.00;;;;;;;7.85;61.80;98767.94;5064389;28;20025;-68
2022/04/04 07:22:41;;;;;;;10.18;5.63;;;;;;;7.78;59.90;98763.63;5064308;28;20021;-68
2022/04/04 07:25:08;;;;;;;7.78;4.82;;;;;;;7.81;58.83;98760.97;5064415;28;20031;-68
2022/04/04 07:27:40;;;;;;;8.35;4.80;;;;;;;8.03;57.35;98742.47;5064273;28;20066;-68
2022/04/04 07:30:07;;;;;;;8.23;4.68;;;;;;;8.55;56.85;98749.03;5064343;28;20096;-68
2022/04/04 07:32:37;;;;;;;6.57;4.38;;;;;;;8.79;55.54;98748.78;5064068;28;20282;-68
2022/04/04 07:35:03;;;;;;;8.02;4.60;;;;;;;8.71;54.59;98740.13;5064357;28;20035;-68
2022/04/04 07:37:29;;;;;;;8.50;5.03;;;;;;;8.76;54.90;98737.44;5064330;28;20029;-68
2022/04/04 07:39:54;;;;;;;8.70;4.65;;;;;;;9.21;54.10;98741.31;5064250;28;20021;-68
2022/04/04 07:42:20;;;;;;;6.68;4.03;;;;;;;9.54;53.35;98740.88;5064068;28;20024;-68
2022/04/04 07:44:45;;;;;;;10.80;4.75;;;;;;;9.88;52.48;98742.13;5064031;28;20039;-68
2022/04/04 07:47:11;;;;;;;6.85;4.40;;;;;;;9.72;52.58;98733.63;5064231;28;20021;-68
2022/04/04 07:49:36;;;;;;;6.28;4.15;;;;;;;9.44;52.69;98734.00;5064024;28;20024;-68
2022/04/04 07:52:02;;;;;;;8.13;5.05;;;;;;;8.91;53.38;98728.53;5063994;28;20035;-68
2022/04/04 07:54:27;;;;;;;15.27;5.20;;;;;;;9.60;52.68;98730.28;5064153;28;20028;-68
2022/04/04 07:56:55;;;;;;;9.35;4.25;;;;;;;10.27;52.78;98731.03;5064076;28;20320;-68
2022/04/04 07:59:22;;;;;;;7.63;4.93;;;;;;;10.48;51.67;98731.50;5063857;28;20272;-68
2022/04/04 08:01:47;;;;;;;7.68;3.88;;;;;;;10.13;50.47;98712.81;5063830;28;20324;-68
2022/04/04 08:04:12;;;;;;;7.57;4.47;;;;;;;9.27;52.03;98714.97;5063179;28;20029;-68
2022/04/04 08:06:38;;;;;;;9.77;4.60;;;;;;;10.15;50.94;98720.69;5063834;28;20028;-68
2022/04/04 08:09:03;;;;;;;7.95;4.30;;;;;;;10.29;49.03;98719.56;5063808;28;20269;-68
2022/04/04 08:11:29;;;;;;;7.28;4.40;;;;;;;11.05;49.45;98719.06;5063729;28;20055;-68
2022/04/04 08:13:54;;;;;;;11.27;4.63;;;;;;;11.72;47.89;98719.41;5063981;28;20032;-68
2022/04/04 08:16:22;;;;;;;7.20;4.22;;;;;;;11.61;47.11;98721.34;5063860;28;20021;-68
2022/04/04 08:18:47;;;;;;;8.27;4.63;;;;;;;11.92;46.84;98717.16;5063621;28;20066;-68
2022/04/04 08:21:15;;;;;;;9.52;4.55;;;;;;;12.22;45.97;98716.41;5063679;28;20025;-68
2022/04/04 08:23:42;;;;;;;7.88;4.47;;;;;;;11.97;45.69;98709.13;5063884;28;20121;-68
2022/04/04 08:26:07;;;;;;;7.40;4.47;;;;;;;12.35;44.39;98711.72;5063853;28;20343;-68
2022/04/04 08:28:33;;;;;;;6.50;4.60;;;;;;;13.23;44.24;98718.16;5063619;28;20021;-68
2022/04/04 08:30:58;;;;;;;8.02;4.32;;;;;;;13.74;42.75;98714.84;5063620;28;20057;-68
2022/04/04 08:33:24;;;;;;;7.75;4.88;;;;;;;12.24;43.06;98698.78;5063530;28;20044;-68
2022/04/04 08:35:53;;;;;;;7.35;4.50;;;;;;;12.92;43.31;98703.09;5063548;28;20370;-68
2022/04/04 08:38:20;;;;;;;6.13;4.10;;;;;;;13.64;43.03;98702.78;5063474;28;20092;-68
2022/04/04 08:40:48;;;;;;;9.05;5.18;;;;;;;13.89;41.58;98700.28;5063533;28;20346;-68
2022/04/04 08:43:18;;;;;;;7.40;4.60;;;;;;;13.16;43.26;98692.81;5063429;28;20029;-68
2022/04/04 08:45:44;;;;;;;9.13;4.97;;;;;;;12.95;43.66;98671.31;5063450;28;20025;-68
2022/04/04 08:48:10;;;;;;;5.90;4.32;;;;;;;12.94;43.54;98666.97;5063431;28;20017;-68
2022/04/04 08:50:37;;;;;;;6.22;4.35;;;;;;;13.31;42.43;98681.78;5063416;28;20029;-68
2022/04/04 08:53:04;;;;;;;9.10;4.60;;;;;;;14.10;42.18;98683.69;5063615;28;20025;-68
2022/04/04 08:55:29;;;;;;;6.45;4.45;;;;;;;13.60;41.54;98665.94;5063343;28;20220;-68
2022/04/04 08:57:56;;;;;;;7.30;4.50;;;;;;;13.65;43.04;98679.84;5063227;28;20028;-68
2022/04/04 09:00:22;;;;;;;11.77;4.40;;;;;;;13.45;43.20;98669.88;5063542;28;20370;-67
2022/04/04 09:03:02;;;;;;;7.45;4.82;;;;;;;13.54;41.85;98661.66;5063272;28;20032;-68
2022/04/04 09:05:29;;;;;;;8.35;4.65;;;;;;;14.44;41.45;98671.09;5063649;28;20339;-68
2022/04/04 09:08:06;;;;;;;10.98;4.95;;;;;;;14.30;40.25;98668.06;5063240;28;20020;-68
2022/04/04 09:10:35;;;;;;;8.75;4.75;;;;;;;14.16;39.98;98659.66;5063209;28;20024;-68
2022/04/04 09:13:12;;;;;;;8.75;4.13;;;;;;;13.75;41.32;98652.19;5063275;28;20029;-68
2022/04/04 09:16:03;;;;;;;6.78;4.32;;;;;;;14.22;42.08;98656.81;5063941;28;20100;-68
2022/04/04 09:18:39;;;;;;;6.57;4.47;;;;;;;14.09;41.00;98647.56;5066773;28;20021;-68
2022/04/04 09:21:11;;;;;;;6.63;4.57;;;;;;;14.30;39.18;98652.19;5066633;28;20035;-68
2022/04/04 09:23:54;;;;;;;6.65;4.22;;;;;;;13.90;40.59;98630.56;5066765;28;20029;-69
2022/04/04 09:26:40;;;;;;;5.20;3.85;;;;;;;14.39;40.27;98641.25;5066899;28;20209;-68
2022/04/04 09:29:12;;;;;;;10.35;4.10;;;;;;;14.06;40.34;98626.50;5066816;28;20209;-68
2022/04/04 09:31:55;;;;;;;4.80;3.38;;;;;;;14.46;40.16;98634.84;5066365;28;20114;-68
2022/04/04 09:34:20;;;;;;;7.43;4.43;;;;;;;14.35;39.22;98623.75;5066486;28;20035;-68
2022/04/04 09:36:47;;;;;;;5.97;4.00;;;;;;;14.76;39.81;98621.38;5066362;28;20048;-68
2022/04/04 09:39:14;;;;;;;5.72;3.83;;;;;;;15.05;39.00;98617.66;5066347;28;20028;-68
2022/04/04 09:41:40;;;;;;;4.68;3.47;;;;;;;15.40;36.84;98619.84;5066581;28;20055;-68
2022/04/04 09:44:07;;;;;;;5.40;3.72;;;;;;;14.75;37.68;98600.25;5066511;28;20320;-68
2022/04/04 09:46:36;;;;;;;5.88;3.45;;;;;;;14.49;38.30;98600.31;5066475;28;20025;-68
2022/04/04 09:49:01;;;;;;;4.18;3.03;;;;;;;14.31;37.84;98599.19;5066161;28;20021;-68
2022/04/04 09:51:53;;;;;;;5.68;2.92;;;;;;;13.89;37.85;98597.09;5066146;28;20086;-68
2022/04/04 09:54:24;;;;;;;6.50;3.70;;;;;;;13.44;39.57;98585.34;5066105;28;20067;-68
2022/04/04 09:56:56;;;;;;;5.18;3.30;;;;;;;13.89;38.20;98590.00;5065989;28;20059;-68
2022/04/04 09:59:21;;;;;;;;;;;;;;;14.17;37.67;98584.63;5066380;28;20032;-68
2022/04/04 10:01:47;;;;;;;5.45;3.42;;;;;;;14.29;38.05;98576.31;5065976;28;19905;-68
2022/04/04 10:04:13;;;;;;;6.05;3.35;;;;;;;14.73;38.13;98559.69;5065875;28;20032;-68
2022/04/04 10:06:41;;;;;;;7.03;3.45;;;;;;;14.06;38.03;98561.19;5065803;28;20074;-68
2022/04/04 10:09:07;;;;;;;5.43;3.28;;;;;;;14.45;37.60;98561.59;5066094;28;20024;-68
2022/04/04 10:11:36;;;;;;;4.25;3.05;;;;;;;14.53;37.69;98554.25;5065741;28;20078;-68
2022/04/04 10:14:02;;;;;;;5.75;3.55;;;;;;;14.91;36.83;98546.59;5065721;28;20056;-68
2022/04/04 10:16:30;;;;;;;5.03;3.40;;;;;;;14.83;37.06;98542.50;5065713;28;20028;-68
2022/04/04 10:18:57;;;;;;;6.00;3.42;;;;;;;14.00;36.65;98536.72;5065856;28;20215;-68
2022/04/04 10:21:25;;;;;;;4.95;3.58;;;;;;;14.54;35.71;98524.19;5065577;28;20025;-68
2022/04/04 10:23:57;;;;;;;7.13;3.38;;;;;;;13.77;36.55;98539.28;5065790;28;20031;-68
2022/04/04 10:26:33;;;;;;;4.50;3.20;;;;;;;13.31;37.43;98531.09;5065492;28;20025;-68
2022/04/04 10:29:21;;;;;;;7.45;4.10;;;;;;;12.61;38.75;98529.72;5065081;28;20019;-68
2022/04/04 10:31:52;;;;;;;4.78;2.95;;;;;;;12.38;39.20;98527.75;5065209;28;20053;-68
2022/04/04 10:34:23;;;;;;;5.18;3.58;;;;;;;12.53;39.60;98516.72;5065365;28;20094;-68
2022/04/04 10:36:59;;;;;;;6.13;3.58;;;;;;;13.01;38.94;98525.88;5065233;28;20027;-68
2022/04/04 10:39:32;;;;;;;5.10;3.38;;;;;;;13.02;37.76;98506.47;5065246;28;20228;-68
2022/04/04 10:41:57;;;;;;;8.23;3.88;;;;;;;13.33;39.94;98513.44;5065456;28;20057;-68
2022/04/04 10:44:46;;;;;;;6.22;3.90;;;;;;;13.21;39.63;98511.16;5065136;28;20221;-68
2022/04/04 10:47:20;;;;;;;5.85;3.90;;;;;;;13.42;39.45;98503.44;5065301;28;20090;-68
2022/04/04 10:49:47;;;;;;;6.47;4.55;;;;;;;12.89;40.07;98491.91;5065219;28;20029;-68
2022/04/04 10:52:13;;;;;;;7.13;4.55;;;;;;;12.81;41.32;98496.53;5065213;28;20032;-68
2022/04/04 10:54:38;;;;;;;7.75;4.13;;;;;;;13.83;40.80;98507.34;5064903;28;20320;-68
2022/04/04 10:57:15;;;;;;;7.43;4.15;;;;;;;13.32;41.06;98496.69;5065064;28;20063;-68
2022/04/04 10:59:44;;;;;;;9.45;4.50;;;;;;;13.66;39.85;98494.66;5064895;28;20071;-68
2022/04/04 11:02:10;;;;;;;7.93;4.30;;;;;;;13.00;39.03;98479.22;5064779;28;20091;-68
2022/04/04 11:07:38;;;;;;;7.30;3.90;;;;;;;13.12;40.78;98469.16;5064748;28;20043;-68
2022/04/04 11:07:41;;;;;;;5.43;3.85;;;;;;;13.31;39.23;98463.25;5064670;28;20048;-68
2022/04/04 11:10:08;;;;;;;8.13;3.70;;;;;;;13.09;39.41;98459.56;5064603;28;20025;-68
2022/04/04 11:12:56;;;;;;;6.28;3.80;;;;;;;12.77;39.53;98447.38;5064585;28;20252;-68
2022/04/04 11:15:44;;;;;;;7.97;4.10;;;;;;;12.66;39.69;98441.53;5064518;28;20224;-68
2022/04/04 11:18:14;;;;;;;6.22;3.78;;;;;;;12.36;40.95;98445.09;5064686;28;20025;-68
2022/04/04 11:21:00;;;;;;;4.65;3.45;;;;;;;11.97;40.68;98440.97;5064478;28;20071;-68
2022/04/04 11:23:30;;;;;;;6.05;3.95;;;;;;;12.53;40.84;98431.41;5064429;28;20035;-68
2022/04/04 11:25:56;;;;;;;4.97;3.53;;;;;;;12.85;40.91;98445.31;5064609;28;20214;-68
2022/04/04 11:28:24;;;;;;;5.93;3.53;;;;;;;13.06;40.40;98421.84;5064351;28;20024;-67
2022/04/04 11:31:05;;;;;;;6.63;2.88;;;;;;;12.82;40.04;98428.72;5064559;28;20036;-68
2022/04/04 11:33:32;;;;;;;7.97;3.50;;;;;;;13.07;40.76;98417.34;5064119;28;20063;-68
2022/04/04 11:35:58;;;;;;;6.72;3.38;;;;;;;13.07;40.63;98405.06;5064454;28;20217;-68
2022/04/04 11:38:23;;;;;;;4.90;3.25;;;;;;;12.68;40.64;98400.09;5063893;28;20025;-68